createdAt,value
2024-03-03T00:02:28.052Z,5.43
2024-03-03T00:04:54.874Z,6.43
2024-03-03T00:07:28.216Z,5.50
2024-03-03T00:09:55.028Z,5.70
2024-03-03T00:12:28.056Z,4.97
2024-03-03T00:14:54.731Z,6.03
2024-03-03T00:17:24.539Z,6.45
2024-03-03T00:19:58.049Z,6.35
2024-03-03T00:22:24.742Z,7.28
2024-03-03T00:24:58.139Z,5.60
2024-03-03T00:27:26.777Z,6.03
2024-03-03T00:30:07.106Z,6.78
2024-03-03T00:32:33.889Z,7.93
2024-03-03T00:35:07.384Z,5.93
2024-03-03T00:37:40.240Z,6.25
2024-03-03T00:40:14.248Z,6.57
2024-03-03T00:42:41.022Z,6.32
2024-03-03T00:45:14.072Z,6.07
2024-03-03T00:47:41.142Z,6.47
2024-03-03T00:50:15.119Z,6.25
2024-03-03T00:52:41.993Z,6.53
2024-03-03T00:55:17.143Z,6.43
2024-03-03T00:57:43.934Z,6.85
2024-03-03T01:00:11.253Z,6.53
2024-03-03T01:02:44.203Z,7.10
2024-03-03T01:05:11.454Z,6.45
2024-03-03T01:07:47.097Z,7.13
2024-03-03T01:10:13.928Z,6.28
2024-03-03T01:12:47.156Z,7.15
2024-03-03T01:15:20.149Z,7.47
2024-03-03T01:17:53.154Z,6.05
2024-03-03T01:20:20.100Z,6.85
2024-03-03T01:22:53.125Z,8.50
2024-03-03T01:25:19.986Z,7.22
2024-03-03T01:27:46.817Z,6.55
2024-03-03T01:30:20.182Z,7.40
2024-03-03T01:32:46.930Z,5.90
2024-03-03T01:35:20.136Z,6.85
2024-03-03T01:37:46.844Z,6.32
2024-03-03T01:40:20.350Z,7.43
2024-03-03T01:42:47.148Z,6.63
2024-03-03T01:45:29.118Z,7.20
2024-03-03T01:47:55.943Z,6.72
2024-03-03T01:50:32.181Z,6.50
2024-03-03T01:53:05.152Z,6.40
2024-03-03T01:55:38.165Z,7.50
2024-03-03T01:58:05.844Z,6.97
2024-03-03T02:00:42.282Z,5.78
2024-03-03T02:03:17.103Z,6.80
2024-03-03T02:05:44.246Z,5.95
2024-03-03T02:08:18.135Z,7.85
2024-03-03T02:10:45.675Z,6.60
2024-03-03T02:13:19.370Z,6.78
2024-03-03T02:15:46.236Z,5.95
2024-03-03T02:18:19.169Z,5.97
2024-03-03T02:20:46.508Z,6.10
2024-03-03T02:23:20.153Z,6.68
2024-03-03T02:25:46.928Z,7.47
2024-03-03T02:28:22.196Z,7.40
2024-03-03T02:30:48.967Z,5.97
2024-03-03T02:33:22.141Z,7.35
2024-03-03T02:35:55.740Z,7.10
2024-03-03T02:38:29.131Z,7.90
2024-03-03T02:40:55.919Z,6.93
2024-03-03T02:43:29.181Z,6.72
2024-03-03T02:46:02.293Z,7.68
2024-03-03T02:48:29.032Z,7.78
2024-03-03T02:51:02.157Z,7.80
2024-03-03T02:53:35.210Z,9.65
2024-03-03T02:56:08.210Z,6.00
2024-03-03T02:58:34.968Z,7.93
2024-03-03T03:01:08.288Z,7.15
2024-03-03T03:03:35.074Z,8.05
2024-03-03T03:06:08.190Z,7.32
2024-03-03T03:08:34.897Z,6.72
2024-03-03T03:11:08.244Z,7.43
2024-03-03T03:13:35.033Z,7.40
2024-03-03T03:16:13.214Z,7.80
2024-03-03T03:18:40.020Z,6.68
2024-03-03T03:21:16.246Z,7.55
2024-03-03T03:23:42.889Z,7.05
2024-03-03T03:26:09.703Z,7.38
2024-03-03T03:28:43.179Z,6.65
2024-03-03T03:31:09.893Z,8.00
2024-03-03T03:33:43.178Z,8.15
2024-03-03T03:36:19.461Z,8.20
2024-03-03T03:38:59.169Z,7.18
2024-03-03T03:41:26.075Z,6.45
2024-03-03T03:43:59.235Z,7.13
2024-03-03T03:46:26.167Z,8.50
2024-03-03T03:48:59.210Z,8.95
2024-03-03T03:51:27.930Z,6.40
2024-03-03T03:54:01.173Z,9.00
2024-03-03T03:56:27.902Z,7.85
2024-03-03T03:59:01.178Z,7.38
2024-03-03T04:01:29.256Z,8.35
2024-03-03T04:04:03.263Z,7.68
2024-03-03T04:06:37.203Z,7.97
2024-03-03T04:09:12.206Z,7.55
2024-03-03T04:11:39.361Z,7.63
2024-03-03T04:14:12.170Z,7.28
2024-03-03T04:16:45.249Z,9.30
2024-03-03T04:19:12.149Z,9.05
2024-03-03T04:21:52.295Z,7.80
2024-03-03T04:24:19.285Z,8.40
2024-03-03T04:26:52.236Z,9.15
2024-03-03T04:29:18.945Z,9.45
2024-03-03T04:31:52.232Z,7.20
2024-03-03T04:34:19.031Z,8.60
2024-03-03T04:36:59.220Z,8.57
2024-03-03T04:39:39.311Z,9.77
2024-03-03T04:42:13.184Z,8.55
2024-03-03T04:44:39.847Z,8.95
2024-03-03T04:47:11.196Z,7.32
2024-03-03T04:49:47.212Z,7.28
2024-03-03T04:52:13.947Z,7.70
2024-03-03T04:54:47.288Z,7.55
2024-03-03T04:57:14.000Z,10.20
2024-03-03T04:59:48.271Z,8.43
2024-03-03T05:02:15.078Z,9.57
2024-03-03T05:04:48.357Z,8.52
2024-03-03T05:07:15.196Z,8.80
2024-03-03T05:09:48.254Z,7.85
2024-03-03T05:12:15.020Z,9.35
2024-03-03T05:14:48.248Z,9.70
2024-03-03T05:17:15.797Z,7.50
2024-03-03T05:19:49.562Z,9.25
2024-03-03T05:22:16.253Z,7.82
2024-03-03T05:24:44.951Z,8.05
2024-03-03T05:27:18.230Z,7.30
2024-03-03T05:29:44.904Z,7.95
2024-03-03T05:32:18.272Z,9.15
2024-03-03T05:34:44.981Z,7.60
2024-03-03T05:37:25.276Z,9.55
2024-03-03T05:39:52.039Z,9.73
2024-03-03T05:42:25.334Z,9.35
2024-03-03T05:44:52.039Z,9.07
2024-03-03T05:47:25.291Z,7.70
2024-03-03T05:49:52.438Z,9.05
2024-03-03T05:52:26.311Z,8.48
2024-03-03T05:54:53.157Z,8.35
2024-03-03T05:57:26.338Z,7.97
2024-03-03T05:59:53.068Z,8.75
2024-03-03T06:02:26.320Z,10.32
2024-03-03T06:04:59.243Z,10.30
2024-03-03T06:07:32.290Z,9.30
2024-03-03T06:10:05.268Z,9.73
2024-03-03T06:12:32.046Z,9.15
2024-03-03T06:15:13.278Z,10.68
2024-03-03T06:17:40.317Z,9.02
2024-03-03T06:20:15.305Z,10.30
2024-03-03T06:22:41.992Z,9.73
2024-03-03T06:25:16.368Z,10.95
2024-03-03T06:27:43.229Z,8.65
2024-03-03T06:30:17.364Z,10.07
2024-03-03T06:32:50.331Z,9.55
2024-03-03T06:35:24.354Z,9.88
2024-03-03T06:38:04.291Z,11.90
2024-03-03T06:40:31.085Z,10.45
2024-03-03T06:43:04.338Z,8.65
2024-03-03T06:45:31.088Z,9.18
2024-03-03T06:48:04.341Z,7.72
2024-03-03T06:50:31.160Z,8.55
2024-03-03T06:53:04.303Z,9.25
2024-03-03T06:55:31.422Z,8.38
2024-03-03T06:58:05.285Z,7.80
2024-03-03T07:00:32.332Z,10.15
2024-03-03T07:03:18.332Z,9.07
2024-03-03T07:05:45.165Z,10.00
2024-03-03T07:08:18.310Z,9.85
2024-03-03T07:10:45.069Z,8.90
2024-03-03T07:13:18.423Z,8.55
2024-03-03T07:15:45.414Z,9.70
2024-03-03T07:18:12.154Z,8.82
2024-03-03T07:20:45.321Z,8.70
2024-03-03T07:23:18.319Z,8.07
2024-03-03T07:25:51.383Z,8.82
2024-03-03T07:28:18.315Z,8.82
2024-03-03T07:30:51.306Z,8.23
2024-03-03T07:33:18.046Z,8.95
2024-03-03T07:35:51.311Z,8.43
2024-03-03T07:38:24.572Z,8.70
2024-03-03T07:40:57.283Z,8.15
2024-03-03T07:43:24.120Z,8.60
2024-03-03T07:45:57.340Z,10.40
2024-03-03T07:48:24.108Z,9.27
2024-03-03T07:50:50.931Z,9.43
2024-03-03T07:53:24.326Z,8.93
2024-03-03T07:55:57.313Z,9.05
2024-03-03T07:58:24.224Z,8.40
2024-03-03T08:00:51.022Z,9.18
2024-03-03T08:03:24.329Z,8.93
2024-03-03T08:05:51.027Z,9.30
2024-03-03T08:08:24.362Z,8.00
2024-03-03T08:10:51.067Z,8.15
2024-03-03T08:13:24.531Z,7.28
2024-03-03T08:15:51.294Z,10.48
2024-03-03T08:18:24.479Z,11.60
2024-03-03T08:20:51.215Z,8.88
2024-03-03T08:23:24.337Z,9.90
2024-03-03T08:25:51.350Z,10.48
2024-03-03T08:28:24.402Z,8.90
2024-03-03T08:30:57.447Z,9.23
2024-03-03T08:33:24.362Z,8.82
2024-03-03T08:35:57.333Z,8.50
2024-03-03T08:38:31.238Z,8.93
2024-03-03T08:41:04.340Z,8.52
2024-03-03T08:43:31.215Z,10.15
2024-03-03T08:46:05.431Z,9.98
2024-03-03T08:48:32.463Z,10.00
2024-03-03T08:51:05.344Z,8.75
2024-03-03T08:53:32.010Z,8.07
2024-03-03T08:56:05.347Z,7.63
2024-03-03T08:58:38.361Z,7.95
2024-03-03T09:01:11.439Z,8.05
2024-03-03T09:03:38.283Z,8.40
2024-03-03T09:06:05.392Z,7.47
2024-03-03T09:08:38.373Z,8.43
2024-03-03T09:11:14.442Z,8.68
2024-03-03T09:13:47.351Z,7.95
2024-03-03T09:16:14.230Z,9.52
2024-03-03T09:18:47.422Z,8.25
2024-03-03T09:21:15.582Z,9.50
2024-03-03T09:23:49.385Z,6.97
2024-03-03T09:26:16.441Z,7.38
2024-03-03T09:28:49.484Z,8.90
2024-03-03T09:31:23.550Z,9.77
2024-03-03T09:33:53.335Z,8.43
2024-03-03T09:36:26.362Z,7.97
2024-03-03T09:39:06.390Z,9.48
2024-03-03T09:41:33.362Z,8.48
2024-03-03T09:44:15.392Z,9.63
2024-03-03T09:46:50.430Z,7.95
2024-03-03T09:49:25.469Z,10.30
2024-03-03T09:51:53.292Z,6.95
2024-03-03T09:54:27.426Z,7.93
2024-03-03T09:56:59.620Z,7.40
2024-03-03T09:59:26.383Z,8.48
2024-03-03T10:02:03.464Z,10.18
2024-03-03T10:04:31.342Z,9.55
2024-03-03T10:07:07.394Z,8.45
2024-03-03T10:09:35.468Z,7.65
2024-03-03T10:12:13.370Z,8.48
2024-03-03T10:14:40.731Z,7.05
2024-03-03T10:17:14.440Z,7.80
2024-03-03T10:19:41.279Z,6.88
2024-03-03T10:22:22.613Z,7.80
2024-03-03T10:24:49.508Z,8.70
2024-03-03T10:27:24.507Z,7.85
2024-03-03T10:30:10.438Z,7.15
2024-03-03T10:32:44.542Z,8.48
2024-03-03T10:35:20.481Z,6.95
2024-03-03T10:38:00.519Z,8.50
2024-03-03T10:40:33.553Z,9.20
2024-03-03T10:43:07.467Z,6.43
2024-03-03T10:45:34.355Z,10.25
2024-03-03T10:48:08.565Z,8.18
2024-03-03T10:50:41.384Z,7.10
2024-03-03T10:53:13.712Z,7.72
2024-03-03T10:55:49.454Z,7.03
2024-03-03T10:58:17.461Z,8.07
2024-03-03T11:00:51.479Z,7.10
2024-03-03T11:03:19.394Z,7.88
2024-03-03T11:05:54.491Z,7.18
2024-03-03T11:08:23.082Z,6.72
2024-03-03T11:11:11.514Z,8.48
2024-03-03T11:13:52.363Z,7.53
2024-03-03T11:16:26.513Z,7.80
2024-03-03T11:18:54.840Z,7.10
2024-03-03T11:21:36.448Z,6.53
2024-03-03T11:24:08.168Z,8.00
2024-03-03T11:27:00.423Z,7.22
2024-03-03T11:29:34.432Z,9.07
2024-03-03T11:32:01.283Z,8.23
2024-03-03T11:34:35.499Z,8.13
2024-03-03T11:37:09.527Z,9.23
2024-03-03T11:39:49.477Z,7.07
2024-03-03T11:42:21.072Z,7.95
2024-03-03T11:44:54.523Z,7.53
2024-03-03T11:47:25.985Z,8.65
2024-03-03T11:50:00.530Z,7.20
2024-03-03T11:52:49.471Z,7.93
2024-03-03T11:55:32.652Z,6.88
2024-03-03T11:58:02.497Z,6.80
2024-03-03T12:00:37.586Z,6.75
2024-03-03T12:03:05.613Z,8.48
2024-03-03T12:05:38.457Z,7.30
2024-03-03T12:08:11.378Z,7.15
2024-03-03T12:10:45.623Z,6.60
2024-03-03T12:13:13.182Z,6.88
2024-03-03T12:15:46.466Z,6.95
2024-03-03T12:18:13.616Z,6.90
2024-03-03T12:20:48.455Z,5.82
2024-03-03T12:23:17.420Z,6.80
2024-03-03T12:25:50.533Z,6.85
2024-03-03T12:28:17.406Z,5.97
2024-03-03T12:30:51.510Z,6.65
2024-03-03T12:33:25.584Z,6.72
2024-03-03T12:35:53.895Z,6.10
2024-03-03T12:38:33.562Z,7.85
2024-03-03T12:41:06.527Z,6.25
2024-03-03T12:43:41.482Z,6.13
2024-03-03T12:46:08.354Z,8.80
2024-03-03T12:48:41.473Z,6.53
2024-03-03T12:51:08.261Z,7.00
2024-03-03T12:53:41.856Z,6.22
2024-03-03T12:56:26.484Z,6.35
2024-03-03T12:58:53.370Z,6.75
2024-03-03T13:01:26.755Z,7.45
2024-03-03T13:04:00.594Z,6.70
2024-03-03T13:06:27.356Z,7.90
2024-03-03T13:09:01.499Z,6.60
2024-03-03T13:11:35.578Z,7.70
2024-03-03T13:14:08.543Z,7.57
2024-03-03T13:16:36.740Z,6.30
2024-03-03T13:19:10.545Z,7.97
2024-03-03T13:21:38.164Z,10.73
2024-03-03T13:24:21.729Z,11.68
2024-03-03T13:26:55.518Z,7.13
2024-03-03T13:29:22.260Z,9.13
2024-03-03T13:32:02.551Z,6.82
2024-03-03T13:34:29.367Z,8.15
2024-03-03T13:37:09.552Z,7.68
2024-03-03T13:39:43.011Z,7.80
2024-03-03T13:42:17.505Z,8.77
2024-03-03T13:44:44.326Z,11.38
2024-03-03T13:47:20.547Z,7.35
2024-03-03T13:49:47.348Z,7.60
2024-03-03T13:52:20.597Z,8.60
2024-03-03T13:54:54.611Z,6.82
2024-03-03T13:57:21.471Z,6.97
2024-03-03T13:59:54.516Z,7.97
2024-03-03T14:02:21.383Z,7.32
2024-03-03T14:04:54.642Z,6.45
2024-03-03T14:07:28.629Z,8.18
2024-03-03T14:10:01.736Z,7.63
2024-03-03T14:12:28.502Z,11.38
2024-03-03T14:15:01.583Z,8.80
2024-03-03T14:17:28.387Z,6.50
2024-03-03T14:20:01.623Z,6.05
2024-03-03T14:22:28.496Z,6.47
2024-03-03T14:25:03.711Z,6.90
2024-03-03T14:27:38.988Z,7.07
2024-03-03T14:30:14.882Z,6.43
2024-03-03T14:32:48.570Z,6.28
2024-03-03T14:35:15.572Z,8.15
2024-03-03T14:37:49.559Z,6.93
2024-03-03T14:40:22.727Z,7.72
2024-03-03T14:42:55.751Z,7.25
2024-03-03T14:45:22.755Z,7.03
2024-03-03T14:47:56.712Z,7.90
2024-03-03T14:50:23.600Z,9.02
2024-03-03T14:52:56.537Z,7.20
2024-03-03T14:55:23.429Z,6.90
2024-03-03T14:57:56.673Z,7.38
2024-03-03T15:00:24.882Z,8.27
2024-03-03T15:02:58.551Z,9.07
2024-03-03T15:05:25.285Z,8.18
2024-03-03T15:07:59.640Z,9.35
2024-03-03T15:10:26.823Z,13.88
2024-03-03T15:13:00.642Z,11.30
2024-03-03T15:15:33.583Z,8.93
2024-03-03T15:18:02.726Z,7.45
2024-03-03T15:20:36.620Z,6.43
2024-03-03T15:23:03.956Z,6.30
2024-03-03T15:25:37.738Z,6.03
2024-03-03T15:28:05.036Z,6.07
2024-03-03T15:30:39.582Z,6.93
2024-03-03T15:33:06.353Z,6.10
2024-03-03T15:35:56.655Z,7.28
2024-03-03T15:38:29.718Z,5.95
2024-03-03T15:41:02.623Z,7.10
2024-03-03T15:43:29.452Z,7.63
2024-03-03T15:46:02.579Z,6.85
2024-03-03T15:48:29.319Z,6.32
2024-03-03T15:51:02.644Z,6.65
2024-03-03T15:53:29.404Z,8.13
2024-03-03T15:55:59.193Z,6.40
2024-03-03T15:58:32.862Z,6.95
2024-03-03T16:01:00.078Z,8.15
2024-03-03T16:03:33.632Z,8.70
2024-03-03T16:06:00.556Z,7.15
2024-03-03T16:08:33.643Z,8.60
2024-03-03T16:11:00.453Z,8.80
2024-03-03T16:13:33.731Z,7.50
2024-03-03T16:16:07.724Z,7.68
2024-03-03T16:18:40.597Z,8.27
2024-03-03T16:21:07.329Z,8.35
2024-03-03T16:23:40.624Z,8.77
2024-03-03T16:26:07.361Z,9.52
2024-03-03T16:28:40.666Z,8.90
2024-03-03T16:31:07.449Z,8.55
2024-03-03T16:33:41.695Z,9.27
2024-03-03T16:36:09.817Z,9.05
2024-03-03T16:38:42.693Z,9.52
2024-03-03T16:41:09.453Z,9.63
2024-03-03T16:43:42.669Z,8.60
2024-03-03T16:46:09.583Z,8.50
2024-03-03T16:48:42.673Z,8.00
2024-03-03T16:51:09.657Z,9.30
2024-03-03T16:53:49.661Z,10.82
2024-03-03T16:56:16.511Z,10.30
2024-03-03T16:58:50.660Z,9.25
2024-03-03T17:01:17.672Z,9.35
2024-03-03T17:03:50.735Z,9.93
2024-03-03T17:06:23.660Z,9.55
2024-03-03T17:08:50.542Z,9.55
2024-03-03T17:11:24.766Z,10.00
2024-03-03T17:13:51.464Z,9.93
2024-03-03T17:16:24.760Z,11.93
2024-03-03T17:18:51.566Z,11.35
2024-03-03T17:21:24.700Z,12.93
2024-03-03T17:23:57.695Z,10.38
2024-03-03T17:26:32.714Z,11.38
2024-03-03T17:28:59.440Z,11.43
2024-03-03T17:31:32.757Z,11.13
2024-03-03T17:34:05.778Z,12.18
2024-03-03T17:36:38.710Z,12.75
2024-03-03T17:39:12.170Z,10.43
2024-03-03T17:41:47.686Z,11.98
2024-03-03T17:44:20.649Z,12.23
2024-03-03T17:46:53.750Z,11.18
2024-03-03T17:49:26.760Z,13.23
2024-03-03T17:51:53.559Z,13.57
2024-03-03T17:54:27.702Z,15.20
2024-03-03T17:56:54.484Z,13.43
2024-03-03T17:59:27.692Z,12.70
2024-03-03T18:01:54.625Z,17.63
2024-03-03T18:04:27.760Z,13.25
2024-03-03T18:06:54.630Z,13.27
2024-03-03T18:09:27.698Z,14.82
2024-03-03T18:12:01.758Z,16.15
2024-03-03T18:14:28.489Z,14.68
2024-03-03T18:17:01.663Z,16.25
2024-03-03T18:19:28.438Z,14.68
2024-03-03T18:22:01.714Z,17.67
2024-03-03T18:24:28.439Z,14.88
2024-03-03T18:27:01.779Z,13.95
2024-03-03T18:29:31.894Z,18.08
2024-03-03T18:32:04.772Z,16.75
2024-03-03T18:34:38.760Z,16.17
2024-03-03T18:37:11.752Z,15.95
2024-03-03T18:39:51.756Z,16.95
2024-03-03T18:42:26.753Z,18.75
2024-03-03T18:44:53.585Z,23.58
2024-03-03T18:47:26.783Z,18.30
2024-03-03T18:49:53.488Z,20.13
2024-03-03T18:52:26.724Z,20.08
2024-03-03T18:55:04.750Z,20.02
2024-03-03T18:57:32.903Z,23.23
2024-03-03T19:00:06.707Z,22.52
2024-03-03T19:02:33.503Z,22.23
2024-03-03T19:05:06.733Z,21.40
2024-03-03T19:07:33.705Z,22.48
2024-03-03T19:10:07.804Z,23.40
2024-03-03T19:12:35.199Z,24.83
2024-03-03T19:15:02.106Z,22.35
2024-03-03T19:17:38.128Z,23.45
2024-03-03T19:20:05.191Z,21.63
2024-03-03T19:22:38.768Z,22.35
2024-03-03T19:25:12.820Z,22.92
2024-03-03T19:27:39.525Z,21.42
2024-03-03T19:30:13.794Z,25.90
2024-03-03T19:32:46.838Z,23.63
2024-03-03T19:35:13.707Z,22.95
2024-03-03T19:37:53.722Z,23.60
2024-03-03T19:40:20.794Z,24.90
2024-03-03T19:42:53.848Z,25.05
2024-03-03T19:45:20.731Z,23.98
2024-03-03T19:47:54.870Z,23.13
2024-03-03T19:50:21.721Z,23.30
2024-03-03T19:52:48.421Z,22.35
2024-03-03T19:55:21.835Z,24.88
2024-03-03T19:57:49.151Z,28.90
2024-03-03T20:00:22.822Z,24.40
2024-03-03T20:02:49.527Z,24.88
2024-03-03T20:05:22.850Z,25.65
2024-03-03T20:07:55.853Z,25.83
2024-03-03T20:10:29.840Z,27.60
2024-03-03T20:13:03.885Z,27.42
2024-03-03T20:15:31.928Z,24.85
2024-03-03T20:17:58.691Z,26.40
2024-03-03T20:20:32.839Z,25.27
2024-03-03T20:22:59.551Z,27.23
2024-03-03T20:25:39.784Z,26.67
2024-03-03T20:28:13.846Z,23.80
2024-03-03T20:30:46.770Z,28.45
2024-03-03T20:33:13.643Z,27.13
2024-03-03T20:35:40.635Z,27.55
2024-03-03T20:38:13.756Z,27.02
2024-03-03T20:40:40.545Z,26.17
2024-03-03T20:43:13.793Z,28.73
2024-03-03T20:45:47.783Z,26.83
2024-03-03T20:48:20.829Z,29.85
2024-03-03T20:50:53.852Z,32.10
2024-03-03T20:53:26.859Z,30.55
2024-03-03T20:55:53.645Z,29.45
2024-03-03T20:58:26.832Z,31.17
2024-03-03T21:00:55.422Z,31.33
2024-03-03T21:03:28.902Z,29.42
2024-03-03T21:05:55.866Z,33.53
2024-03-03T21:08:28.802Z,25.88
2024-03-03T21:10:55.918Z,28.88
2024-03-03T21:13:28.858Z,31.30
2024-03-03T21:15:58.977Z,27.40
2024-03-03T21:18:32.819Z,28.83
2024-03-03T21:20:59.665Z,28.90
2024-03-03T21:23:26.405Z,31.63
2024-03-03T21:26:00.820Z,29.42
2024-03-03T21:28:28.314Z,29.45
2024-03-03T21:31:01.817Z,28.58
2024-03-03T21:33:28.622Z,27.88
2024-03-03T21:36:01.835Z,28.63
2024-03-03T21:38:34.884Z,29.42
2024-03-03T21:41:08.807Z,25.75
2024-03-03T21:43:35.648Z,28.77
2024-03-03T21:46:08.881Z,26.95
2024-03-03T21:48:41.840Z,27.42
2024-03-03T21:51:14.827Z,29.73
2024-03-03T21:53:41.579Z,26.33
2024-03-03T21:56:14.784Z,26.45
2024-03-03T21:58:47.855Z,28.98
2024-03-03T22:01:14.771Z,29.92
2024-03-03T22:03:48.088Z,32.35
2024-03-03T22:06:27.850Z,26.63
2024-03-03T22:09:00.845Z,27.23
2024-03-03T22:11:27.689Z,27.02
2024-03-03T22:14:00.876Z,28.48
2024-03-03T22:16:27.774Z,26.42
2024-03-03T22:19:00.912Z,28.80
2024-03-03T22:21:28.565Z,30.45
2024-03-03T22:24:01.855Z,32.95
2024-03-03T22:26:29.746Z,32.80
2024-03-03T22:29:02.807Z,36.03
2024-03-03T22:31:29.594Z,34.40
2024-03-03T22:33:56.428Z,32.10
2024-03-03T22:36:29.886Z,29.33
2024-03-03T22:39:09.822Z,30.58
2024-03-03T22:41:42.830Z,28.13
2024-03-03T22:44:09.601Z,26.92
2024-03-03T22:46:42.897Z,27.70
2024-03-03T22:49:09.723Z,29.88
2024-03-03T22:51:43.859Z,29.25
2024-03-03T22:54:13.669Z,28.27
2024-03-03T22:56:46.843Z,27.42
2024-03-03T22:59:13.832Z,26.88
2024-03-03T23:01:47.919Z,30.88
2024-03-03T23:04:14.819Z,28.40
2024-03-03T23:06:47.877Z,30.10
2024-03-03T23:09:14.735Z,26.85
2024-03-03T23:11:48.891Z,25.45
2024-03-03T23:14:18.686Z,23.85
2024-03-03T23:16:51.931Z,27.15
2024-03-03T23:19:24.850Z,28.00
2024-03-03T23:21:58.909Z,23.90
2024-03-03T23:24:31.823Z,26.85
2024-03-03T23:26:58.690Z,29.08
2024-03-03T23:29:31.878Z,25.20
2024-03-03T23:31:58.644Z,27.67
2024-03-03T23:34:31.958Z,27.70
2024-03-03T23:37:01.324Z,24.40
2024-03-03T23:39:41.869Z,25.42
2024-03-03T23:42:08.601Z,27.50
2024-03-03T23:44:41.870Z,27.02
2024-03-03T23:47:08.625Z,26.75
2024-03-03T23:49:41.906Z,27.95
2024-03-03T23:52:09.622Z,29.52
2024-03-03T23:54:37.343Z,26.60
2024-03-03T23:57:13.907Z,28.60
2024-03-03T23:59:40.656Z,27.40
